sensor_id;sensor_type;location;lat;lon;timestamp;noise_LAeq;noise_LA_min;noise_LA_max;noise_LA01;noise_LA95
64393;Laerm;50712;49.506;10.400;2022-10-19T00:00:03;30.18;28.18;33.43;;
64393;Laerm;50712;49.506;10.400;2022-10-19T00:00:35;30.58;28.34;35.44;;
64393;Laerm;50712;49.506;10.400;2022-10-19T00:01:15;29.85;27.76;34.83;;
64393;Laerm;50712;49.506;10.400;2022-10-19T00:01:45;29.55;27.96;33.63;;
64393;Laerm;50712;49.506;10.400;2022-10-19T00:02:16;29.26;27.85;32.99;;
64393;Laerm;50712;49.506;10.400;2022-10-19T00:02:46;29.51;27.65;34.63;;
64393;Laerm;50712;49.506;10.400;2022-10-19T00:03:17;29.38;27.51;34.10;;
64393;Laerm;50712;49.506;10.400;2022-10-19T00:03:52;29.52;27.50;34.05;;
64393;Laerm;50712;49.506;10.400;2022-10-19T00:04:23;29.49;27.31;33.58;;
64393;Laerm;50712;49.506;10.400;2022-10-19T00:04:53;30.01;27.43;35.69;;
64393;Laerm;50712;49.506;10.400;2022-10-19T00:05:24;29.83;27.36;34.54;;
64393;Laerm;50712;49.506;10.400;2022-10-19T00:05:54;29.38;27.46;34.56;;
64393;Laerm;50712;49.506;10.400;2022-10-19T00:06:55;30.05;27.46;34.38;;
64393;Laerm;50712;49.506;10.400;2022-10-19T00:07:25;30.04;27.33;34.34;;
64393;Laerm;50712;49.506;10.400;2022-10-19T00:07:56;29.76;27.60;33.95;;
64393;Laerm;50712;49.506;10.400;2022-10-19T00:08:26;29.82;27.57;34.74;;
64393;Laerm;50712;49.506;10.400;2022-10-19T00:09:09;29.77;27.58;33.28;;
64393;Laerm;50712;49.506;10.400;2022-10-19T00:09:42;30.18;27.63;34.74;;
64393;Laerm;50712;49.506;10.400;2022-10-19T00:10:13;30.31;28.00;35.21;;
64393;Laerm;50712;49.506;10.400;2022-10-19T00:10:43;30.18;27.97;35.13;;
64393;Laerm;50712;49.506;10.400;2022-10-19T00:11:14;29.95;27.69;33.78;;
64393;Laerm;50712;49.506;10.400;2022-10-19T00:11:47;30.20;27.68;34.97;;
64393;Laerm;50712;49.506;10.400;2022-10-19T00:12:17;30.47;27.86;35.11;;
64393;Laerm;50712;49.506;10.400;2022-10-19T00:12:49;32.27;27.56;53.27;;
64393;Laerm;50712;49.506;10.400;2022-10-19T00:13:19;32.65;27.70;53.91;;
64393;Laerm;50712;49.506;10.400;2022-10-19T00:13:50;29.97;27.98;34.21;;
64393;Laerm;50712;49.506;10.400;2022-10-19T00:14:22;30.09;28.02;33.44;;
64393;Laerm;50712;49.506;10.400;2022-10-19T00:14:53;30.49;28.18;36.08;;
64393;Laerm;50712;49.506;10.400;2022-10-19T00:15:23;32.37;28.64;37.29;;
64393;Laerm;50712;49.506;10.400;2022-10-19T00:15:53;32.75;29.48;37.97;;
64393;Laerm;50712;49.506;10.400;2022-10-19T00:16:26;32.95;29.83;37.44;;
64393;Laerm;50712;49.506;10.400;2022-10-19T00:16:57;33.09;29.76;37.77;;
64393;Laerm;50712;49.506;10.400;2022-10-19T00:17:57;32.68;29.84;37.91;;
64393;Laerm;50712;49.506;10.400;2022-10-19T00:18:28;31.89;29.84;35.74;;
64393;Laerm;50712;49.506;10.400;2022-10-19T00:19:03;31.13;29.18;34.17;;
64393;Laerm;50712;49.506;10.400;2022-10-19T00:19:33;31.06;28.88;33.50;;
64393;Laerm;50712;49.506;10.400;2022-10-19T00:20:04;30.97;28.90;34.43;;
64393;Laerm;50712;49.506;10.400;2022-10-19T00:20:36;30.77;28.86;34.27;;
64393;Laerm;50712;49.506;10.400;2022-10-19T00:21:08;30.83;28.99;34.56;;
64393;Laerm;50712;49.506;10.400;2022-10-19T00:21:39;30.90;28.99;34.44;;
64393;Laerm;50712;49.506;10.400;2022-10-19T00:22:10;30.51;28.47;35.19;;
64393;Laerm;50712;49.506;10.400;2022-10-19T00:22:40;30.61;28.46;33.66;;
64393;Laerm;50712;49.506;10.400;2022-10-19T00:23:11;31.68;29.46;36.42;;
64393;Laerm;50712;49.506;10.400;2022-10-19T00:23:42;31.73;29.51;35.47;;
64393;Laerm;50712;49.506;10.400;2022-10-19T00:24:12;32.11;29.77;36.32;;
64393;Laerm;50712;49.506;10.400;2022-10-19T00:24:43;31.92;29.71;34.54;;
64393;Laerm;50712;49.506;10.400;2022-10-19T00:25:13;32.65;30.06;44.78;;
64393;Laerm;50712;49.506;10.400;2022-10-19T00:25:53;32.51;30.06;34.87;;
64393;Laerm;50712;49.506;10.400;2022-10-19T00:26:24;32.33;29.80;34.88;;
64393;Laerm;50712;49.506;10.400;2022-10-19T00:26:55;32.04;29.91;34.51;;
64393;Laerm;50712;49.506;10.400;2022-10-19T00:27:25;31.19;28.86;33.80;;
64393;Laerm;50712;49.506;10.400;2022-10-19T00:27:56;30.22;28.58;32.00;;
64393;Laerm;50712;49.506;10.400;2022-10-19T00:28:27;30.24;28.60;31.69;;
64393;Laerm;50712;49.506;10.400;2022-10-19T00:28:57;30.21;28.52;32.43;;
64393;Laerm;50712;49.506;10.400;2022-10-19T00:29:28;30.19;28.68;32.24;;
64393;Laerm;50712;49.506;10.400;2022-10-19T00:29:58;30.76;28.85;35.26;;
64393;Laerm;50712;49.506;10.400;2022-10-19T00:30:28;30.20;28.59;35.82;;
64393;Laerm;50712;49.506;10.400;2022-10-19T00:31:09;30.05;28.49;32.90;;
64393;Laerm;50712;49.506;10.400;2022-10-19T00:31:41;29.98;28.47;32.36;;
64393;Laerm;50712;49.506;10.400;2022-10-19T00:32:11;35.33;28.61;41.95;;
64393;Laerm;50712;49.506;10.400;2022-10-19T00:32:41;39.81;33.45;45.80;;
64393;Laerm;50712;49.506;10.400;2022-10-19T00:33:12;38.73;31.87;44.43;;
64393;Laerm;50712;49.506;10.400;2022-10-19T00:33:44;35.16;30.04;43.76;;
64393;Laerm;50712;49.506;10.400;2022-10-19T00:34:16;32.28;28.70;37.60;;
64393;Laerm;50712;49.506;10.400;2022-10-19T00:34:47;31.02;28.22;43.80;;
64393;Laerm;50712;49.506;10.400;2022-10-19T00:35:17;29.79;27.84;32.40;;
64393;Laerm;50712;49.506;10.400;2022-10-19T00:35:49;29.23;28.04;33.12;;
64393;Laerm;50712;49.506;10.400;2022-10-19T00:36:29;28.91;27.81;31.90;;
64393;Laerm;50712;49.506;10.400;2022-10-19T00:37:00;28.87;27.83;30.09;;
64393;Laerm;50712;49.506;10.400;2022-10-19T00:37:30;29.12;27.83;32.97;;
64393;Laerm;50712;49.506;10.400;2022-10-19T00:38:00;29.25;27.86;33.44;;
64393;Laerm;50712;49.506;10.400;2022-10-19T00:38:31;29.65;28.12;33.55;;
64393;Laerm;50712;49.506;10.400;2022-10-19T00:39:03;30.19;28.60;36.65;;
64393;Laerm;50712;49.506;10.400;2022-10-19T00:39:33;30.22;28.49;33.68;;
64393;Laerm;50712;49.506;10.400;2022-10-19T00:40:04;30.35;28.62;35.97;;
64393;Laerm;50712;49.506;10.400;2022-10-19T00:40:38;29.69;27.83;34.52;;
64393;Laerm;50712;49.506;10.400;2022-10-19T00:41:09;29.44;28.24;30.79;;
64393;Laerm;50712;49.506;10.400;2022-10-19T00:41:40;29.88;27.86;38.68;;
64393;Laerm;50712;49.506;10.400;2022-10-19T00:42:11;36.76;28.84;45.95;;
64393;Laerm;50712;49.506;10.400;2022-10-19T00:42:41;39.58;29.96;47.05;;
64393;Laerm;50712;49.506;10.400;2022-10-19T00:43:14;31.86;28.30;40.35;;
64393;Laerm;50712;49.506;10.400;2022-10-19T00:45:20;28.72;27.41;32.38;;
64393;Laerm;50712;49.506;10.400;2022-10-19T00:45:51;28.67;27.36;31.75;;
64393;Laerm;50712;49.506;10.400;2022-10-19T00:46:22;28.69;26.95;30.75;;
64393;Laerm;50712;49.506;10.400;2022-10-19T00:46:52;28.59;27.13;31.19;;
64393;Laerm;50712;49.506;10.400;2022-10-19T00:47:26;28.56;27.23;35.92;;
64393;Laerm;50712;49.506;10.400;2022-10-19T00:47:57;32.14;27.43;53.79;;
64393;Laerm;50712;49.506;10.400;2022-10-19T00:48:30;30.83;27.97;35.96;;
64393;Laerm;50712;49.506;10.400;2022-10-19T00:49:41;30.65;27.91;34.89;;
64393;Laerm;50712;49.506;10.400;2022-10-19T00:50:14;29.20;27.67;32.40;;
64393;Laerm;50712;49.506;10.400;2022-10-19T00:50:46;28.92;27.57;30.89;;
64393;Laerm;50712;49.506;10.400;2022-10-19T00:51:17;28.65;27.55;30.87;;
64393;Laerm;50712;49.506;10.400;2022-10-19T00:51:56;28.63;27.37;37.23;;
64393;Laerm;50712;49.506;10.400;2022-10-19T00:52:27;28.74;27.41;34.96;;
64393;Laerm;50712;49.506;10.400;2022-10-19T00:52:58;28.80;27.56;30.07;;
64393;Laerm;50712;49.506;10.400;2022-10-19T00:53:29;28.75;27.69;31.22;;
64393;Laerm;50712;49.506;10.400;2022-10-19T00:54:02;28.72;27.74;32.62;;
64393;Laerm;50712;49.506;10.400;2022-10-19T00:54:36;28.67;27.36;30.12;;
64393;Laerm;50712;49.506;10.400;2022-10-19T00:55:08;28.56;27.47;30.15;;
64393;Laerm;50712;49.506;10.400;2022-10-19T00:55:40;28.62;27.08;29.84;;
64393;Laerm;50712;49.506;10.400;2022-10-19T00:56:13;28.64;27.35;29.96;;
64393;Laerm;50712;49.506;10.400;2022-10-19T00:56:46;28.62;27.07;33.32;;
64393;Laerm;50712;49.506;10.400;2022-10-19T00:57:18;29.12;27.48;30.76;;
64393;Laerm;50712;49.506;10.400;2022-10-19T00:57:49;28.83;27.75;30.00;;
64393;Laerm;50712;49.506;10.400;2022-10-19T00:58:19;28.94;27.72;35.09;;
64393;Laerm;50712;49.506;10.400;2022-10-19T00:58:50;28.99;27.69;30.84;;
64393;Laerm;50712;49.506;10.400;2022-10-19T00:59:21;28.50;27.20;31.67;;
64393;Laerm;50712;49.506;10.400;2022-10-19T00:59:54;28.52;27.22;36.53;;
64393;Laerm;50712;49.506;10.400;2022-10-19T01:00:25;28.55;27.36;29.92;;
64393;Laerm;50712;49.506;10.400;2022-10-19T01:00:56;28.54;27.43;31.00;;
64393;Laerm;50712;49.506;10.400;2022-10-19T01:01:27;28.52;27.41;33.54;;
64393;Laerm;50712;49.506;10.400;2022-10-19T01:01:59;28.45;27.43;30.76;;
64393;Laerm;50712;49.506;10.400;2022-10-19T01:02:31;28.51;27.20;29.84;;
64393;Laerm;50712;49.506;10.400;2022-10-19T01:03:02;31.89;27.56;53.04;;
64393;Laerm;50712;49.506;10.400;2022-10-19T01:03:33;28.57;27.30;30.31;;
64393;Laerm;50712;49.506;10.400;2022-10-19T01:04:04;28.61;27.44;36.02;;
64393;Laerm;50712;49.506;10.400;2022-10-19T01:04:37;28.55;27.29;34.80;;
64393;Laerm;50712;49.506;10.400;2022-10-19T01:05:10;28.57;27.43;31.17;;
64393;Laerm;50712;49.506;10.400;2022-10-19T01:05:40;29.11;27.49;33.36;;
64393;Laerm;50712;49.506;10.400;2022-10-19T01:06:13;30.56;28.25;35.86;;
64393;Laerm;50712;49.506;10.400;2022-10-19T01:06:46;32.50;28.13;37.96;;
64393;Laerm;50712;49.506;10.400;2022-10-19T01:07:18;31.95;28.03;38.77;;
64393;Laerm;50712;49.506;10.400;2022-10-19T01:07:48;30.65;27.92;36.56;;
64393;Laerm;50712;49.506;10.400;2022-10-19T01:08:19;31.77;27.71;38.67;;
64393;Laerm;50712;49.506;10.400;2022-10-19T01:08:49;32.30;28.05;40.18;;
64393;Laerm;50712;49.506;10.400;2022-10-19T01:09:20;31.41;28.27;37.15;;
64393;Laerm;50712;49.506;10.400;2022-10-19T01:09:51;30.60;28.02;34.88;;
64393;Laerm;50712;49.506;10.400;2022-10-19T01:10:30;31.39;27.96;36.60;;
64393;Laerm;50712;49.506;10.400;2022-10-19T01:13:06;32.16;28.01;38.61;;
64393;Laerm;50712;49.506;10.400;2022-10-19T01:14:49;31.45;28.05;36.98;;
64393;Laerm;50712;49.506;10.400;2022-10-19T01:16:34;30.35;27.31;36.16;;
64393;Laerm;50712;49.506;10.400;2022-10-19T01:18:18;30.35;27.66;35.64;;
64393;Laerm;50712;49.506;10.400;2022-10-19T01:18:59;29.56;27.23;33.44;;
64393;Laerm;50712;49.506;10.400;2022-10-19T01:21:50;28.50;27.20;35.66;;
64393;Laerm;50712;49.506;10.400;2022-10-19T01:23:21;28.91;27.36;32.30;;
64393;Laerm;50712;49.506;10.400;2022-10-19T01:24:10;28.58;27.29;30.99;;
64393;Laerm;50712;49.506;10.400;2022-10-19T01:26:29;28.76;27.52;32.65;;
64393;Laerm;50712;49.506;10.400;2022-10-19T01:27:23;28.87;27.50;32.54;;
64393;Laerm;50712;49.506;10.400;2022-10-19T01:28:17;38.85;28.67;49.54;;
64393;Laerm;50712;49.506;10.400;2022-10-19T01:29:56;29.83;28.04;33.24;;
64393;Laerm;50712;49.506;10.400;2022-10-19T01:30:42;29.98;27.51;41.11;;
64393;Laerm;50712;49.506;10.400;2022-10-19T01:31:25;30.81;27.83;49.34;;
64393;Laerm;50712;49.506;10.400;2022-10-19T01:32:44;32.40;28.31;50.71;;
64393;Laerm;50712;49.506;10.400;2022-10-19T01:33:46;29.36;27.73;33.48;;
64393;Laerm;50712;49.506;10.400;2022-10-19T01:34:27;29.16;27.91;30.53;;
64393;Laerm;50712;49.506;10.400;2022-10-19T01:35:12;29.31;27.65;31.61;;
64393;Laerm;50712;49.506;10.400;2022-10-19T01:35:54;29.54;28.23;32.85;;
64393;Laerm;50712;49.506;10.400;2022-10-19T01:36:56;29.59;28.16;33.64;;
64393;Laerm;50712;49.506;10.400;2022-10-19T01:37:55;29.42;27.90;32.00;;
64393;Laerm;50712;49.506;10.400;2022-10-19T01:40:41;28.78;27.63;34.53;;
64393;Laerm;50712;49.506;10.400;2022-10-19T01:41:17;28.84;27.56;31.79;;
64393;Laerm;50712;49.506;10.400;2022-10-19T01:42:11;28.85;27.58;30.23;;
64393;Laerm;50712;49.506;10.400;2022-10-19T01:42:48;28.83;27.68;32.92;;
64393;Laerm;50712;49.506;10.400;2022-10-19T01:44:21;29.20;27.84;38.14;;
64393;Laerm;50712;49.506;10.400;2022-10-19T01:44:58;28.74;27.54;31.87;;
64393;Laerm;50712;49.506;10.400;2022-10-19T01:45:40;28.78;27.36;33.44;;
64393;Laerm;50712;49.506;10.400;2022-10-19T01:46:18;28.90;27.82;30.21;;
64393;Laerm;50712;49.506;10.400;2022-10-19T01:47:01;37.08;27.65;58.12;;
64393;Laerm;50712;49.506;10.400;2022-10-19T01:47:50;36.42;27.55;63.08;;
64393;Laerm;50712;49.506;10.400;2022-10-19T01:48:27;38.05;27.70;62.75;;
64393;Laerm;50712;49.506;10.400;2022-10-19T01:49:07;28.75;27.61;32.90;;
64393;Laerm;50712;49.506;10.400;2022-10-19T01:49:42;28.74;27.46;33.69;;
64393;Laerm;50712;49.506;10.400;2022-10-19T01:50:15;28.63;27.52;30.91;;
64393;Laerm;50712;49.506;10.400;2022-10-19T01:50:54;28.63;27.45;31.12;;
64393;Laerm;50712;49.506;10.400;2022-10-19T01:51:33;28.59;27.13;31.27;;
64393;Laerm;50712;49.506;10.400;2022-10-19T01:52:07;29.03;27.66;30.87;;
64393;Laerm;50712;49.506;10.400;2022-10-19T01:52:39;28.95;27.36;30.47;;
64393;Laerm;50712;49.506;10.400;2022-10-19T01:53:12;29.19;27.88;31.10;;
64393;Laerm;50712;49.506;10.400;2022-10-19T01:53:47;28.78;27.64;31.28;;
64393;Laerm;50712;49.506;10.400;2022-10-19T01:54:20;28.94;27.55;35.43;;
64393;Laerm;50712;49.506;10.400;2022-10-19T01:54:55;29.26;27.91;31.85;;
64393;Laerm;50712;49.506;10.400;2022-10-19T01:55:26;29.09;27.74;32.04;;
64393;Laerm;50712;49.506;10.400;2022-10-19T01:55:59;29.15;27.76;31.11;;
64393;Laerm;50712;49.506;10.400;2022-10-19T01:56:33;28.85;27.69;35.88;;
64393;Laerm;50712;49.506;10.400;2022-10-19T01:57:39;29.37;28.24;30.58;;
64393;Laerm;50712;49.506;10.400;2022-10-19T01:58:14;28.71;27.64;30.22;;
64393;Laerm;50712;49.506;10.400;2022-10-19T01:58:46;28.77;27.54;32.90;;
64393;Laerm;50712;49.506;10.400;2022-10-19T01:59:20;29.00;27.71;31.48;;
64393;Laerm;50712;49.506;10.400;2022-10-19T01:59:51;30.37;27.70;33.51;;
64393;Laerm;50712;49.506;10.400;2022-10-19T02:00:23;30.01;27.89;34.95;;
64393;Laerm;50712;49.506;10.400;2022-10-19T02:00:57;28.91;27.63;31.55;;
64393;Laerm;50712;49.506;10.400;2022-10-19T02:01:30;29.09;27.81;30.57;;
64393;Laerm;50712;49.506;10.400;2022-10-19T02:02:05;29.13;27.71;33.61;;
64393;Laerm;50712;49.506;10.400;2022-10-19T02:02:37;28.70;27.43;30.58;;
64393;Laerm;50712;49.506;10.400;2022-10-19T02:03:11;30.38;27.81;37.79;;
64393;Laerm;50712;49.506;10.400;2022-10-19T02:03:42;29.43;27.59;35.02;;
64393;Laerm;50712;49.506;10.400;2022-10-19T02:04:16;28.58;27.48;29.87;;
64393;Laerm;50712;49.506;10.400;2022-10-19T02:04:48;28.64;27.49;35.25;;
64393;Laerm;50712;49.506;10.400;2022-10-19T02:05:22;28.81;27.70;29.95;;
64393;Laerm;50712;49.506;10.400;2022-10-19T02:05:53;29.29;27.70;31.28;;
64393;Laerm;50712;49.506;10.400;2022-10-19T02:06:25;28.67;27.56;29.79;;
64393;Laerm;50712;49.506;10.400;2022-10-19T02:06:57;28.56;27.38;31.48;;
64393;Laerm;50712;49.506;10.400;2022-10-19T02:07:28;28.55;27.49;34.13;;
64393;Laerm;50712;49.506;10.400;2022-10-19T02:08:02;29.16;27.66;32.41;;
64393;Laerm;50712;49.506;10.400;2022-10-19T02:08:48;29.12;27.67;32.93;;
64393;Laerm;50712;49.506;10.400;2022-10-19T02:09:19;31.17;28.59;48.86;;
64393;Laerm;50712;49.506;10.400;2022-10-19T02:09:49;29.42;27.85;31.36;;
64393;Laerm;50712;49.506;10.400;2022-10-19T02:10:20;35.45;27.52;57.01;;
64393;Laerm;50712;49.506;10.400;2022-10-19T02:10:51;29.59;27.62;49.03;;
64393;Laerm;50712;49.506;10.400;2022-10-19T02:11:23;30.46;28.39;36.12;;
64393;Laerm;50712;49.506;10.400;2022-10-19T02:11:56;31.93;28.77;36.28;;
64393;Laerm;50712;49.506;10.400;2022-10-19T02:12:30;28.93;27.29;30.78;;
64393;Laerm;50712;49.506;10.400;2022-10-19T02:13:02;29.54;28.05;31.87;;
64393;Laerm;50712;49.506;10.400;2022-10-19T02:13:34;31.29;28.12;35.22;;
64393;Laerm;50712;49.506;10.400;2022-10-19T02:14:09;28.79;27.15;38.97;;
64393;Laerm;50712;49.506;10.400;2022-10-19T02:14:43;28.65;27.55;30.01;;
64393;Laerm;50712;49.506;10.400;2022-10-19T02:15:17;28.93;27.70;31.42;;
64393;Laerm;50712;49.506;10.400;2022-10-19T02:15:51;35.32;28.20;46.08;;
64393;Laerm;50712;49.506;10.400;2022-10-19T02:16:31;38.46;31.04;46.32;;
64393;Laerm;50712;49.506;10.400;2022-10-19T02:17:10;34.35;29.17;39.97;;
64393;Laerm;50712;49.506;10.400;2022-10-19T02:17:46;31.97;28.72;39.16;;
64393;Laerm;50712;49.506;10.400;2022-10-19T02:18:32;29.81;27.92;33.68;;
64393;Laerm;50712;49.506;10.400;2022-10-19T02:19:05;29.50;27.67;36.03;;
64393;Laerm;50712;49.506;10.400;2022-10-19T02:19:38;28.66;27.53;31.24;;
64393;Laerm;50712;49.506;10.400;2022-10-19T02:20:08;29.10;27.55;35.46;;
64393;Laerm;50712;49.506;10.400;2022-10-19T02:20:39;28.64;27.41;34.56;;
64393;Laerm;50712;49.506;10.400;2022-10-19T02:21:09;29.12;27.59;35.83;;
64393;Laerm;50712;49.506;10.400;2022-10-19T02:21:40;30.43;27.83;38.02;;
64393;Laerm;50712;49.506;10.400;2022-10-19T02:22:11;29.91;27.59;37.95;;
64393;Laerm;50712;49.506;10.400;2022-10-19T02:22:41;30.20;28.24;36.19;;
64393;Laerm;50712;49.506;10.400;2022-10-19T02:23:14;30.25;27.50;41.15;;
64393;Laerm;50712;49.506;10.400;2022-10-19T02:23:46;28.89;27.59;31.95;;
64393;Laerm;50712;49.506;10.400;2022-10-19T02:24:16;29.67;27.77;38.57;;
64393;Laerm;50712;49.506;10.400;2022-10-19T02:24:47;29.27;27.52;40.59;;
64393;Laerm;50712;49.506;10.400;2022-10-19T02:25:17;29.51;27.75;36.88;;
64393;Laerm;50712;49.506;10.400;2022-10-19T02:25:48;29.45;27.65;35.20;;
64393;Laerm;50712;49.506;10.400;2022-10-19T02:26:19;30.82;28.01;38.05;;
64393;Laerm;50712;49.506;10.400;2022-10-19T02:26:51;29.27;27.32;34.07;;
64393;Laerm;50712;49.506;10.400;2022-10-19T02:27:22;30.18;27.61;36.53;;
64393;Laerm;50712;49.506;10.400;2022-10-19T02:27:53;28.99;27.29;33.10;;
64393;Laerm;50712;49.506;10.400;2022-10-19T02:28:24;30.43;27.39;39.26;;
64393;Laerm;50712;49.506;10.400;2022-10-19T02:28:55;29.88;27.22;37.64;;
64393;Laerm;50712;49.506;10.400;2022-10-19T02:29:26;31.15;27.49;40.24;;
64393;Laerm;50712;49.506;10.400;2022-10-19T02:29:56;31.63;27.64;37.83;;
64393;Laerm;50712;49.506;10.400;2022-10-19T02:30:27;29.66;27.55;35.69;;
64393;Laerm;50712;49.506;10.400;2022-10-19T02:30:58;30.84;27.42;38.44;;
64393;Laerm;50712;49.506;10.400;2022-10-19T02:31:29;30.20;27.42;37.39;;
64393;Laerm;50712;49.506;10.400;2022-10-19T02:32:00;30.15;27.50;39.82;;
64393;Laerm;50712;49.506;10.400;2022-10-19T02:32:31;29.19;27.63;32.00;;
64393;Laerm;50712;49.506;10.400;2022-10-19T02:33:01;31.13;27.96;37.03;;
64393;Laerm;50712;49.506;10.400;2022-10-19T02:33:32;29.68;27.85;32.99;;
64393;Laerm;50712;49.506;10.400;2022-10-19T02:34:03;29.09;27.98;31.15;;
64393;Laerm;50712;49.506;10.400;2022-10-19T02:34:34;30.35;28.01;46.54;;
64393;Laerm;50712;49.506;10.400;2022-10-19T02:35:05;30.63;28.08;36.16;;
64393;Laerm;50712;49.506;10.400;2022-10-19T02:35:36;29.64;27.69;36.68;;
64393;Laerm;50712;49.506;10.400;2022-10-19T02:36:06;28.96;27.71;32.65;;
64393;Laerm;50712;49.506;10.400;2022-10-19T02:36:37;30.01;27.66;38.37;;
64393;Laerm;50712;49.506;10.400;2022-10-19T02:37:07;30.84;27.25;38.40;;
64393;Laerm;50712;49.506;10.400;2022-10-19T02:37:38;30.38;28.39;36.10;;
64393;Laerm;50712;49.506;10.400;2022-10-19T02:38:10;31.71;27.95;40.77;;
64393;Laerm;50712;49.506;10.400;2022-10-19T02:38:44;30.27;27.80;38.69;;
64393;Laerm;50712;49.506;10.400;2022-10-19T02:39:14;32.60;27.88;40.36;;
64393;Laerm;50712;49.506;10.400;2022-10-19T02:39:45;33.98;29.54;48.81;;
64393;Laerm;50712;49.506;10.400;2022-10-19T02:40:15;33.76;30.14;44.41;;
64393;Laerm;50712;49.506;10.400;2022-10-19T02:40:58;32.09;28.44;41.07;;
64393;Laerm;50712;49.506;10.400;2022-10-19T02:42:40;33.68;27.59;59.89;;
64393;Laerm;50712;49.506;10.400;2022-10-19T02:43:13;29.61;27.43;38.91;;
64393;Laerm;50712;49.506;10.400;2022-10-19T02:43:52;29.01;27.75;31.43;;
64393;Laerm;50712;49.506;10.400;2022-10-19T02:44:28;29.89;27.94;34.74;;
64393;Laerm;50712;49.506;10.400;2022-10-19T02:45:09;35.46;28.61;47.18;;
64393;Laerm;50712;49.506;10.400;2022-10-19T02:45:48;41.21;34.22;48.59;;
64393;Laerm;50712;49.506;10.400;2022-10-19T02:46:56;39.31;33.38;45.56;;
64393;Laerm;50712;49.506;10.400;2022-10-19T02:47:19;35.40;28.76;44.36;;
64393;Laerm;50712;49.506;10.400;2022-10-19T02:47:55;29.97;28.22;33.31;;
64393;Laerm;50712;49.506;10.400;2022-10-19T02:48:29;29.65;27.74;39.28;;
64393;Laerm;50712;49.506;10.400;2022-10-19T02:49:34;30.63;28.17;38.34;;
64393;Laerm;50712;49.506;10.400;2022-10-19T02:50:06;29.50;27.82;34.72;;
64393;Laerm;50712;49.506;10.400;2022-10-19T02:50:42;30.17;27.88;43.52;;
64393;Laerm;50712;49.506;10.400;2022-10-19T02:51:30;29.80;27.68;36.04;;
64393;Laerm;50712;49.506;10.400;2022-10-19T02:52:08;30.05;28.06;35.31;;
64393;Laerm;50712;49.506;10.400;2022-10-19T02:52:39;29.87;28.01;34.41;;
64393;Laerm;50712;49.506;10.400;2022-10-19T02:53:10;30.23;28.06;34.47;;
64393;Laerm;50712;49.506;10.400;2022-10-19T02:53:40;29.77;28.28;31.81;;
64393;Laerm;50712;49.506;10.400;2022-10-19T02:54:10;31.86;29.12;36.88;;
64393;Laerm;50712;49.506;10.400;2022-10-19T02:54:42;34.24;29.84;43.31;;
64393;Laerm;50712;49.506;10.400;2022-10-19T02:55:45;34.95;30.70;40.10;;
64393;Laerm;50712;49.506;10.400;2022-10-19T02:56:16;31.73;29.37;36.07;;
64393;Laerm;50712;49.506;10.400;2022-10-19T02:56:47;30.60;28.56;33.92;;
64393;Laerm;50712;49.506;10.400;2022-10-19T02:57:23;30.37;28.34;35.09;;
64393;Laerm;50712;49.506;10.400;2022-10-19T02:57:54;29.81;28.26;35.43;;
64393;Laerm;50712;49.506;10.400;2022-10-19T02:58:24;30.83;28.64;34.59;;
64393;Laerm;50712;49.506;10.400;2022-10-19T02:58:55;30.63;28.55;34.12;;
64393;Laerm;50712;49.506;10.400;2022-10-19T02:59:27;33.46;28.92;40.17;;
64393;Laerm;50712;49.506;10.400;2022-10-19T02:59:58;32.40;28.56;43.86;;
64393;Laerm;50712;49.506;10.400;2022-10-19T03:00:28;31.09;28.93;36.29;;
64393;Laerm;50712;49.506;10.400;2022-10-19T03:00:58;30.63;28.47;32.96;;
64393;Laerm;50712;49.506;10.400;2022-10-19T03:01:29;29.88;28.29;33.81;;
64393;Laerm;50712;49.506;10.400;2022-10-19T03:01:59;29.58;27.87;32.81;;
64393;Laerm;50712;49.506;10.400;2022-10-19T03:02:30;30.78;28.56;34.43;;
64393;Laerm;50712;49.506;10.400;2022-10-19T03:03:00;30.19;28.30;34.14;;
64393;Laerm;50712;49.506;10.400;2022-10-19T03:04:02;39.10;33.28;43.19;;
64393;Laerm;50712;49.506;10.400;2022-10-19T03:04:32;36.19;30.14;41.26;;
64393;Laerm;50712;49.506;10.400;2022-10-19T03:05:03;31.37;28.69;35.22;;
64393;Laerm;50712;49.506;10.400;2022-10-19T03:05:33;31.79;28.74;35.35;;
64393;Laerm;50712;49.506;10.400;2022-10-19T03:06:04;30.89;28.91;33.84;;
64393;Laerm;50712;49.506;10.400;2022-10-19T03:06:34;31.30;29.02;35.35;;
64393;Laerm;50712;49.506;10.400;2022-10-19T03:07:04;30.62;28.79;35.38;;
64393;Laerm;50712;49.506;10.400;2022-10-19T03:07:35;30.38;28.60;32.90;;
64393;Laerm;50712;49.506;10.400;2022-10-19T03:08:05;30.37;28.39;36.15;;
64393;Laerm;50712;49.506;10.400;2022-10-19T03:08:36;35.10;29.77;41.50;;
64393;Laerm;50712;49.506;10.400;2022-10-19T03:09:06;33.56;30.04;37.88;;
64393;Laerm;50712;49.506;10.400;2022-10-19T03:09:37;31.64;29.19;35.24;;
64393;Laerm;50712;49.506;10.400;2022-10-19T03:10:08;31.88;29.24;37.10;;
64393;Laerm;50712;49.506;10.400;2022-10-19T03:10:38;32.87;28.99;39.71;;
64393;Laerm;50712;49.506;10.400;2022-10-19T03:11:09;39.68;30.63;45.14;;
64393;Laerm;50712;49.506;10.400;2022-10-19T03:11:39;37.29;31.01;42.37;;
64393;Laerm;50712;49.506;10.400;2022-10-19T03:12:10;32.82;29.89;37.27;;
64393;Laerm;50712;49.506;10.400;2022-10-19T03:12:41;30.89;29.10;37.51;;
64393;Laerm;50712;49.506;10.400;2022-10-19T03:13:11;34.31;29.13;43.37;;
64393;Laerm;50712;49.506;10.400;2022-10-19T03:13:42;41.14;35.82;46.62;;
64393;Laerm;50712;49.506;10.400;2022-10-19T03:14:12;36.74;30.85;42.39;;
64393;Laerm;50712;49.506;10.400;2022-10-19T03:14:43;37.59;29.34;60.89;;
64393;Laerm;50712;49.506;10.400;2022-10-19T03:15:15;33.83;29.07;52.94;;
64393;Laerm;50712;49.506;10.400;2022-10-19T03:15:45;31.40;28.69;35.79;;
64393;Laerm;50712;49.506;10.400;2022-10-19T03:16:16;32.97;29.66;38.18;;
64393;Laerm;50712;49.506;10.400;2022-10-19T03:16:47;30.72;28.68;34.05;;
64393;Laerm;50712;49.506;10.400;2022-10-19T03:17:17;30.56;28.65;33.02;;
64393;Laerm;50712;49.506;10.400;2022-10-19T03:17:51;31.25;28.91;42.25;;
64393;Laerm;50712;49.506;10.400;2022-10-19T03:18:21;30.30;28.27;33.05;;
64393;Laerm;50712;49.506;10.400;2022-10-19T03:18:52;29.94;28.17;38.02;;
64393;Laerm;50712;49.506;10.400;2022-10-19T03:19:23;31.62;28.47;34.96;;
64393;Laerm;50712;49.506;10.400;2022-10-19T03:19:54;36.09;30.35;44.86;;
64393;Laerm;50712;49.506;10.400;2022-10-19T03:20:24;42.99;35.18;48.88;;
64393;Laerm;50712;49.506;10.400;2022-10-19T03:21:09;36.25;31.09;42.48;;
64393;Laerm;50712;49.506;10.400;2022-10-19T03:21:40;31.70;29.63;39.33;;
64393;Laerm;50712;49.506;10.400;2022-10-19T03:22:12;30.49;28.69;34.66;;
64393;Laerm;50712;49.506;10.400;2022-10-19T03:22:43;31.91;29.70;35.71;;
64393;Laerm;50712;49.506;10.400;2022-10-19T03:23:13;30.85;29.11;33.70;;
64393;Laerm;50712;49.506;10.400;2022-10-19T03:23:44;29.99;28.22;32.87;;
64393;Laerm;50712;49.506;10.400;2022-10-19T03:24:14;31.46;28.73;34.35;;
64393;Laerm;50712;49.506;10.400;2022-10-19T03:24:45;31.98;28.89;35.15;;